createdAt,value
2022-10-19T01:14:38.287Z,10.93
2022-10-19T01:17:23.303Z,7.25
2022-10-19T01:20:37.453Z,8.68
2022-10-19T01:23:31.864Z,7.93
2022-10-19T01:26:38.751Z,11.02
2022-10-19T01:29:34.926Z,7.53
2022-10-19T01:32:08.720Z,10.32
2022-10-19T01:34:40.447Z,8.75
2022-10-19T01:37:18.280Z,8.70
2022-10-19T01:39:57.464Z,5.63
2022-10-19T01:42:46.923Z,6.05
2022-10-19T01:45:25.903Z,7.78
2022-10-19T01:47:58.801Z,9.18
2022-10-19T01:50:33.546Z,5.78
2022-10-19T01:52:59.857Z,9.93
2022-10-19T01:55:27.714Z,8.02
2022-10-19T01:57:59.817Z,7.10
2022-10-19T02:00:26.772Z,7.07
2022-10-19T02:02:55.079Z,7.55
2022-10-19T02:05:24.347Z,6.93
2022-10-19T02:07:55.999Z,5.22
2022-10-19T02:10:22.731Z,4.75
2022-10-19T02:12:49.895Z,9.35
2022-10-19T02:15:22.446Z,4.57
2022-10-19T02:17:52.555Z,6.20
2022-10-19T02:20:19.875Z,6.28
2022-10-19T02:22:45.965Z,4.93
2022-10-19T02:25:13.074Z,2.92
2022-10-19T02:27:43.547Z,5.32
2022-10-19T02:30:15.687Z,4.65
2022-10-19T02:32:43.490Z,6.60
2022-10-19T02:35:12.563Z,6.28
2022-10-19T02:37:39.170Z,4.68
2022-10-19T02:40:06.255Z,3.45
2022-10-19T02:42:38.626Z,5.75
2022-10-19T02:45:17.433Z,5.93
2022-10-19T02:48:09.989Z,6.07
2022-10-19T02:50:36.240Z,5.15
2022-10-19T02:53:02.474Z,4.80
2022-10-19T02:55:30.866Z,4.18
2022-10-19T02:57:57.442Z,4.10
2022-10-19T03:00:23.546Z,4.40
2022-10-19T03:02:50.790Z,4.03
2022-10-19T03:05:17.132Z,4.18
2022-10-19T03:07:43.472Z,3.47
2022-10-19T03:10:09.772Z,5.15
2022-10-19T03:12:35.860Z,4.25
2022-10-19T03:15:02.000Z,5.13
2022-10-19T03:17:28.092Z,3.70
2022-10-19T03:19:54.199Z,10.02
2022-10-19T03:22:20.291Z,5.78
2022-10-19T03:24:46.362Z,5.35
2022-10-19T03:27:12.460Z,4.38
2022-10-19T03:29:38.538Z,4.25
2022-10-19T03:32:04.733Z,5.93
2022-10-19T03:34:30.826Z,4.63
2022-10-19T03:36:59.223Z,5.47
2022-10-19T03:39:25.912Z,6.15
2022-10-19T03:41:52.003Z,4.90
2022-10-19T03:44:18.080Z,3.83
2022-10-19T03:46:44.173Z,4.38
2022-10-19T03:49:11.369Z,3.78
2022-10-19T03:51:37.770Z,3.88
2022-10-19T03:54:06.886Z,2.65
2022-10-19T03:56:34.694Z,4.85
2022-10-19T03:59:02.246Z,5.30
2022-10-19T04:01:40.241Z,10.30
2022-10-19T04:04:09.922Z,4.45
2022-10-19T04:06:38.214Z,5.97
2022-10-19T04:09:05.970Z,4.72
2022-10-19T04:11:33.538Z,9.52
2022-10-19T04:13:59.842Z,2.78
2022-10-19T04:16:27.998Z,5.97
2022-10-19T04:18:54.247Z,6.57
2022-10-19T04:21:25.532Z,4.07
2022-10-19T04:23:56.957Z,5.30
2022-10-19T04:26:23.090Z,3.40
2022-10-19T04:28:49.349Z,2.85
2022-10-19T04:31:15.666Z,4.93
2022-10-19T04:33:42.017Z,5.82
2022-10-19T04:36:10.864Z,4.93
2022-10-19T04:38:37.992Z,3.67
2022-10-19T04:41:10.128Z,3.40
2022-10-19T04:43:37.151Z,2.28
2022-10-19T04:46:08.614Z,3.58
2022-10-19T04:48:36.106Z,3.63
2022-10-19T04:51:02.274Z,1.95
2022-10-19T04:53:28.742Z,2.33
2022-10-19T04:55:54.903Z,6.65
2022-10-19T04:58:21.019Z,5.40
2022-10-19T05:00:47.176Z,2.20
2022-10-19T05:03:13.342Z,3.50
2022-10-19T05:05:39.465Z,3.25
2022-10-19T05:08:05.711Z,1.98
2022-10-19T05:10:31.839Z,4.50
2022-10-19T05:12:59.964Z,4.75
2022-10-19T05:15:26.100Z,4.72
2022-10-19T05:17:52.200Z,3.33
2022-10-19T05:20:18.436Z,4.55
2022-10-19T05:22:44.569Z,4.93
2022-10-19T05:25:10.662Z,6.47
2022-10-19T05:27:37.029Z,4.80
2022-10-19T05:30:04.264Z,3.47
2022-10-19T05:32:30.350Z,5.38
2022-10-19T05:34:56.437Z,6.95
2022-10-19T05:37:22.533Z,2.78
2022-10-19T05:39:48.621Z,2.20
2022-10-19T05:42:14.719Z,4.65
2022-10-19T05:44:40.955Z,5.90
2022-10-19T05:47:07.263Z,5.10
2022-10-19T05:49:33.352Z,4.78
2022-10-19T05:51:59.456Z,2.53
2022-10-19T05:54:27.791Z,4.75
2022-10-19T05:56:54.746Z,7.28
2022-10-19T05:59:22.089Z,5.85
2022-10-19T06:01:48.269Z,4.53
2022-10-19T06:04:15.117Z,5.75
2022-10-19T06:06:42.944Z,5.13
2022-10-19T06:09:09.967Z,5.80
2022-10-19T06:11:39.183Z,7.38
2022-10-19T06:14:08.352Z,7.10
2022-10-19T06:16:35.395Z,3.00
2022-10-19T06:19:02.124Z,4.13
2022-10-19T06:21:31.115Z,6.15
2022-10-19T06:24:01.051Z,4.40
2022-10-19T06:26:27.681Z,2.80
2022-10-19T06:29:00.445Z,6.18
2022-10-19T06:31:31.971Z,7.03
2022-10-19T06:33:58.149Z,3.08
2022-10-19T06:36:27.270Z,5.10
2022-10-19T06:38:53.641Z,8.20
2022-10-19T06:41:20.349Z,6.72
2022-10-19T06:43:50.561Z,4.88
2022-10-19T06:46:20.454Z,3.72
2022-10-19T06:48:54.571Z,4.43
2022-10-19T06:51:21.399Z,3.90
2022-10-19T06:53:48.373Z,4.10
2022-10-19T06:56:15.890Z,3.58
2022-10-19T06:58:41.967Z,5.55
2022-10-19T07:01:09.745Z,6.03
2022-10-19T07:03:37.091Z,5.82
2022-10-19T07:06:06.242Z,3.95
2022-10-19T07:08:34.154Z,6.22
2022-10-19T07:11:03.145Z,3.80
2022-10-19T07:13:30.317Z,4.05
2022-10-19T07:15:58.580Z,1.85
2022-10-19T07:18:25.134Z,5.70
2022-10-19T07:20:55.867Z,4.35
2022-10-19T07:23:22.081Z,6.05
2022-10-19T07:25:48.203Z,4.60
2022-10-19T07:28:14.345Z,3.10
2022-10-19T07:30:40.484Z,5.80
2022-10-19T07:33:06.842Z,2.88
2022-10-19T07:35:33.003Z,5.22
2022-10-19T07:37:59.082Z,3.35
2022-10-19T07:40:25.166Z,4.57
2022-10-19T07:42:51.250Z,8.00
2022-10-19T07:45:17.353Z,3.90
2022-10-19T07:47:43.440Z,6.82
2022-10-19T07:50:09.742Z,5.10
2022-10-19T07:52:36.995Z,5.95
2022-10-19T07:55:03.577Z,5.53
2022-10-19T07:57:29.664Z,5.85
2022-10-19T07:59:55.755Z,5.45
2022-10-19T08:02:23.126Z,4.75
2022-10-19T08:05:00.848Z,5.10
2022-10-19T08:07:29.000Z,4.82
2022-10-19T08:09:55.218Z,3.05
2022-10-19T08:12:21.419Z,3.55
2022-10-19T08:14:48.196Z,5.93
2022-10-19T08:17:17.469Z,6.75
2022-10-19T08:19:45.170Z,4.03
2022-10-19T08:22:11.729Z,4.03
2022-10-19T08:24:38.092Z,4.25
2022-10-19T08:27:04.479Z,5.75
2022-10-19T08:29:31.627Z,5.63
2022-10-19T08:31:58.056Z,3.22
2022-10-19T08:34:24.359Z,5.80
2022-10-19T08:36:50.590Z,7.18
2022-10-19T08:39:17.898Z,5.70
2022-10-19T08:41:59.166Z,5.10
2022-10-19T08:45:03.508Z,7.47
2022-10-19T08:47:44.817Z,3.90
2022-10-19T08:50:22.488Z,4.35
2022-10-19T08:52:55.348Z,6.20
2022-10-19T08:55:31.993Z,3.60
2022-10-19T08:58:21.994Z,3.97
2022-10-19T09:00:53.330Z,5.20
2022-10-19T09:03:56.153Z,2.97
2022-10-19T09:06:49.880Z,5.32
2022-10-19T09:09:19.008Z,5.47
2022-10-19T09:11:49.345Z,4.85
2022-10-19T09:14:25.710Z,3.13
2022-10-19T09:16:51.835Z,4.32
2022-10-19T09:19:25.938Z,3.95
2022-10-19T09:21:57.072Z,3.25
2022-10-19T09:24:41.666Z,2.42
2022-10-19T09:27:16.531Z,3.00
2022-10-19T09:29:47.824Z,3.67
2022-10-19T09:32:18.782Z,3.05
2022-10-19T09:34:50.003Z,2.90
2022-10-19T09:37:24.773Z,4.40
2022-10-19T09:39:54.965Z,3.47
2022-10-19T09:42:30.410Z,2.95
2022-10-19T09:44:59.183Z,5.90
2022-10-19T09:47:37.704Z,3.42
2022-10-19T09:50:22.270Z,4.38
2022-10-19T09:52:50.847Z,3.83
2022-10-19T09:55:16.918Z,8.23
2022-10-19T09:57:49.995Z,3.67
2022-10-19T10:00:19.845Z,8.07
2022-10-19T10:03:06.224Z,3.03
2022-10-19T10:05:39.293Z,6.68
2022-10-19T10:08:13.643Z,5.43
2022-10-19T10:10:44.728Z,4.57
2022-10-19T10:13:18.569Z,2.75
2022-10-19T10:15:49.524Z,3.60
2022-10-19T10:18:17.589Z,2.53
2022-10-19T10:23:42.519Z,1.92
2022-10-19T10:26:19.651Z,2.30
2022-10-19T10:28:50.630Z,4.93
2022-10-19T10:31:20.820Z,3.30
2022-10-19T10:33:54.986Z,6.75
2022-10-19T10:36:25.747Z,6.82
2022-10-19T10:38:58.679Z,4.45
2022-10-19T10:41:28.951Z,2.85
2022-10-19T10:44:06.646Z,2.05
2022-10-19T10:46:36.508Z,2.80
2022-10-19T10:49:05.518Z,2.72
2022-10-19T10:51:42.941Z,6.88
2022-10-19T10:54:18.053Z,5.90
2022-10-19T10:56:56.324Z,1.23
2022-10-19T10:59:28.133Z,1.98
2022-10-19T11:02:07.059Z,2.90
2022-10-19T11:04:39.444Z,4.35
2022-10-19T11:07:17.182Z,1.98
2022-10-19T11:09:48.992Z,2.80
2022-10-19T11:12:19.100Z,5.22
2022-10-19T11:14:53.779Z,5.97
2022-10-19T11:17:24.850Z,4.47
2022-10-19T11:19:51.465Z,4.43
2022-10-19T11:22:29.773Z,2.20
2022-10-19T11:25:41.175Z,2.15
2022-10-19T11:28:16.134Z,1.20
2022-10-19T11:31:10.857Z,2.35
2022-10-19T11:33:56.880Z,1.60
2022-10-19T11:36:39.671Z,1.60
2022-10-19T11:39:19.140Z,2.80
2022-10-19T11:41:50.747Z,2.45
2022-10-19T11:44:51.578Z,1.95
2022-10-19T11:47:55.171Z,2.60
2022-10-19T11:50:49.717Z,1.70
2022-10-19T11:53:44.550Z,2.80
2022-10-19T11:56:35.059Z,3.00
2022-10-19T11:59:44.159Z,2.15
2022-10-19T12:02:25.204Z,4.28
2022-10-19T12:05:02.089Z,1.95
2022-10-19T12:07:46.809Z,2.47
2022-10-19T12:10:42.092Z,4.63
2022-10-19T12:13:14.406Z,3.70
2022-10-19T12:15:45.949Z,3.22
2022-10-19T12:18:31.903Z,1.50
2022-10-19T12:21:02.328Z,3.10
2022-10-19T12:23:48.743Z,1.70
2022-10-19T12:29:09.955Z,3.80
2022-10-19T12:31:36.383Z,5.05
2022-10-19T12:34:25.605Z,3.13
2022-10-19T12:37:19.391Z,5.65
2022-10-19T12:39:55.263Z,1.98
2022-10-19T12:42:52.047Z,4.43
2022-10-19T12:45:25.368Z,2.63
2022-10-19T12:48:11.154Z,1.73
2022-10-19T12:50:49.299Z,3.00
2022-10-19T12:53:36.376Z,1.60
2022-10-19T12:56:11.287Z,3.92
2022-10-19T12:58:49.991Z,1.95
2022-10-19T13:01:34.379Z,1.70
2022-10-19T13:04:14.981Z,2.00
2022-10-19T13:06:47.128Z,2.65
2022-10-19T13:09:31.828Z,1.33
2022-10-19T13:12:14.999Z,1.17
2022-10-19T13:14:58.476Z,1.58
2022-10-19T13:17:49.207Z,2.05
2022-10-19T13:20:15.297Z,1.50
2022-10-19T13:22:47.086Z,2.28
2022-10-19T13:25:27.835Z,1.80
2022-10-19T13:28:28.740Z,2.70
2022-10-19T13:31:00.515Z,2.45
2022-10-19T13:33:32.093Z,4.95
2022-10-19T13:36:02.354Z,4.97
2022-10-19T13:38:29.498Z,1.73
2022-10-19T13:41:18.514Z,2.55
2022-10-19T13:44:00.806Z,1.65
2022-10-19T13:46:29.678Z,2.58
2022-10-19T13:49:01.508Z,2.35
2022-10-19T13:51:58.873Z,3.30
2022-10-19T13:54:43.078Z,1.30
2022-10-19T13:57:29.396Z,2.00
2022-10-19T14:00:17.679Z,1.65
2022-10-19T14:02:56.032Z,4.10
2022-10-19T14:05:47.639Z,1.80
2022-10-19T14:08:47.595Z,1.75
2022-10-19T14:11:28.143Z,3.17
2022-10-19T14:14:15.058Z,1.98
2022-10-19T14:16:59.758Z,1.60
2022-10-19T14:19:42.245Z,1.40
2022-10-19T14:22:34.964Z,1.85
2022-10-19T14:25:05.317Z,1.70
2022-10-19T14:27:31.791Z,2.28
2022-10-19T14:29:58.271Z,1.55
2022-10-19T14:32:27.184Z,2.30
2022-10-19T14:34:54.869Z,2.17
2022-10-19T14:37:26.604Z,2.47
2022-10-19T14:40:26.427Z,1.92
2022-10-19T14:42:54.142Z,2.75
2022-10-19T14:45:32.019Z,1.95
2022-10-19T14:48:06.549Z,1.67
2022-10-19T14:50:42.806Z,2.20
2022-10-19T14:53:20.714Z,2.45
2022-10-19T14:55:48.471Z,2.42
2022-10-19T14:58:20.519Z,1.88
2022-10-19T15:00:49.586Z,2.53
2022-10-19T15:03:26.287Z,2.17
2022-10-19T15:05:57.938Z,2.83
2022-10-19T15:08:34.667Z,1.45
2022-10-19T15:11:00.956Z,2.60
2022-10-19T15:13:32.252Z,1.48
2022-10-19T15:15:58.397Z,3.25
2022-10-19T15:18:47.702Z,1.80
2022-10-19T15:21:15.728Z,1.92
2022-10-19T15:23:43.543Z,2.20
2022-10-19T15:26:26.777Z,2.00
2022-10-19T15:28:54.439Z,5.10
2022-10-19T15:31:28.761Z,3.03
2022-10-19T15:33:57.487Z,2.05
2022-10-19T15:36:25.282Z,2.67
2022-10-19T15:39:06.118Z,2.17
2022-10-19T15:41:43.579Z,3.30
2022-10-19T15:44:33.199Z,3.17
2022-10-19T15:47:12.997Z,5.90
2022-10-19T15:49:42.076Z,4.38
2022-10-19T15:52:19.312Z,3.20
2022-10-19T15:54:53.839Z,3.05
2022-10-19T15:57:33.819Z,5.97
2022-10-19T16:00:10.910Z,2.20
2022-10-19T16:02:37.021Z,3.53
2022-10-19T16:05:03.303Z,3.53
2022-10-19T16:07:32.623Z,3.83
2022-10-19T16:09:59.406Z,3.20
2022-10-19T16:12:26.812Z,6.43
2022-10-19T16:14:54.377Z,4.75
2022-10-19T16:17:20.500Z,3.83
2022-10-19T16:19:47.151Z,6.35
2022-10-19T16:22:14.617Z,7.15
2022-10-19T16:24:41.195Z,6.28
2022-10-19T16:27:08.174Z,7.30
2022-10-19T16:29:34.330Z,6.95
2022-10-19T16:32:01.157Z,5.68
2022-10-19T16:34:27.711Z,4.07
2022-10-19T16:36:54.560Z,4.97
2022-10-19T16:39:20.696Z,3.60
2022-10-19T16:41:46.778Z,4.43
2022-10-19T16:44:13.207Z,5.75
2022-10-19T16:46:39.316Z,4.60
2022-10-19T16:49:05.407Z,3.08
2022-10-19T16:51:39.551Z,3.47
2022-10-19T16:54:07.529Z,3.78
2022-10-19T16:56:34.561Z,4.85
2022-10-19T16:59:04.128Z,7.15
2022-10-19T17:01:31.705Z,4.95
2022-10-19T17:03:58.689Z,5.50
2022-10-19T17:06:25.966Z,4.38
2022-10-19T17:09:29.914Z,8.63
2022-10-19T17:11:39.727Z,7.10
2022-10-19T17:14:08.968Z,6.40
2022-10-19T17:16:36.378Z,4.43
2022-10-19T17:19:04.850Z,6.63
2022-10-19T17:21:33.201Z,5.70
2022-10-19T17:24:01.343Z,8.57
2022-10-19T17:26:35.608Z,4.43
2022-10-19T17:29:01.769Z,5.88
2022-10-19T17:31:28.995Z,5.70
2022-10-19T17:33:55.510Z,4.53
2022-10-19T17:36:28.206Z,10.63
2022-10-19T17:38:56.075Z,8.18
2022-10-19T17:41:22.912Z,9.55
2022-10-19T17:43:51.858Z,10.35
2022-10-19T17:46:20.793Z,9.13
2022-10-19T17:48:47.415Z,10.10
2022-10-19T17:51:21.713Z,9.10
2022-10-19T17:53:48.720Z,10.80
2022-10-19T17:56:17.338Z,7.90
2022-10-19T17:58:43.500Z,13.25
2022-10-19T18:01:10.399Z,12.48
2022-10-19T18:03:37.469Z,11.02
2022-10-19T18:06:08.162Z,11.85
2022-10-19T18:08:39.951Z,9.50
2022-10-19T18:11:15.554Z,10.63
2022-10-19T18:13:42.806Z,12.45
2022-10-19T18:16:12.712Z,13.25
2022-10-19T18:18:41.199Z,13.10
2022-10-19T18:21:11.577Z,11.10
2022-10-19T18:23:38.143Z,11.57
2022-10-19T18:26:09.984Z,11.85
2022-10-19T18:28:36.427Z,8.65
2022-10-19T18:31:23.612Z,11.73
2022-10-19T18:33:56.048Z,12.95
2022-10-19T18:36:22.186Z,9.20
2022-10-19T18:38:52.736Z,8.98
2022-10-19T18:41:19.557Z,8.98
2022-10-19T18:43:53.708Z,16.75
2022-10-19T18:46:21.288Z,10.50
2022-10-19T18:48:47.904Z,9.30
2022-10-19T18:51:15.574Z,7.93
2022-10-19T18:53:42.687Z,17.65
2022-10-19T18:56:11.046Z,11.07
2022-10-19T18:58:37.906Z,9.38
2022-10-19T19:01:25.063Z,7.95
2022-10-19T19:03:53.201Z,8.05
2022-10-19T19:06:26.096Z,7.47
2022-10-19T19:08:54.880Z,8.48
2022-10-19T19:11:23.767Z,7.53
2022-10-19T19:13:52.334Z,8.23
2022-10-19T19:16:18.704Z,10.25
2022-10-19T19:18:44.904Z,11.88
2022-10-19T19:21:16.877Z,10.93
2022-10-19T19:23:43.206Z,8.80
2022-10-19T19:26:10.690Z,9.77
2022-10-19T19:28:39.254Z,8.75
2022-10-19T19:31:09.237Z,8.90
2022-10-19T19:33:35.580Z,8.63
2022-10-19T19:36:07.909Z,10.13
2022-10-19T19:38:35.306Z,11.57
2022-10-19T19:41:05.394Z,9.05
2022-10-19T19:43:33.542Z,11.90
2022-10-19T19:46:04.620Z,10.75
2022-10-19T19:48:34.136Z,9.02
2022-10-19T19:51:00.220Z,7.47
2022-10-19T19:53:26.317Z,10.23
2022-10-19T19:55:52.407Z,10.30
2022-10-19T19:58:19.011Z,11.77
2022-10-19T20:00:46.438Z,9.65
2022-10-19T20:03:13.355Z,8.65
2022-10-19T20:05:40.771Z,12.13
2022-10-19T20:08:07.880Z,8.02
2022-10-19T20:10:37.807Z,7.90
2022-10-19T20:15:30.955Z,9.88
2022-10-19T20:17:57.044Z,8.02
2022-10-19T20:20:23.131Z,8.38
2022-10-19T20:22:49.394Z,8.68
2022-10-19T20:25:15.784Z,7.15
2022-10-19T20:27:42.538Z,8.10
2022-10-19T20:30:09.196Z,6.57
2022-10-19T20:32:36.575Z,9.93
2022-10-19T20:35:07.471Z,8.27
2022-10-19T20:37:33.692Z,10.82
2022-10-19T20:40:01.453Z,12.75
2022-10-19T20:42:28.595Z,11.02
2022-10-19T20:44:55.522Z,10.55
2022-10-19T20:47:21.619Z,10.25
2022-10-19T20:49:48.140Z,11.50
2022-10-19T20:52:14.235Z,8.30
2022-10-19T20:54:40.344Z,8.15
2022-10-19T20:57:06.436Z,8.75
2022-10-19T20:59:33.410Z,6.32
2022-10-19T21:01:59.632Z,14.40
2022-10-19T21:04:26.008Z,7.95
2022-10-19T21:06:52.773Z,11.90
2022-10-19T21:09:22.842Z,8.35
2022-10-19T21:11:50.300Z,7.97
2022-10-19T21:14:25.441Z,11.32
2022-10-19T21:16:54.741Z,7.70
2022-10-19T21:19:23.811Z,7.82
2022-10-19T21:21:52.631Z,8.63
2022-10-19T21:24:21.640Z,8.85
2022-10-19T21:26:48.100Z,7.40
2022-10-19T21:29:15.894Z,8.60
2022-10-19T21:31:47.961Z,5.47
2022-10-19T21:34:18.757Z,7.45
2022-10-19T21:36:45.148Z,6.38
2022-10-19T21:39:11.236Z,8.05
2022-10-19T21:41:37.488Z,11.68
2022-10-19T21:44:03.579Z,12.15
2022-10-19T21:46:29.813Z,9.10
2022-10-19T21:48:55.927Z,7.68
2022-10-19T21:51:48.171Z,12.27
2022-10-19T21:54:17.950Z,8.75
2022-10-19T21:56:45.030Z,9.10
2022-10-19T21:59:12.231Z,8.88
2022-10-19T22:01:41.360Z,8.23
2022-10-19T22:04:13.262Z,8.95
2022-10-19T22:06:39.859Z,10.40
2022-10-19T22:09:07.566Z,8.35
2022-10-19T22:11:34.069Z,9.98
2022-10-19T22:14:01.943Z,9.77
2022-10-19T22:16:29.660Z,7.78
2022-10-19T22:18:55.936Z,9.93
2022-10-19T22:21:24.655Z,8.40
2022-10-19T22:23:53.478Z,8.65
2022-10-19T22:26:25.902Z,11.45
2022-10-19T22:28:52.771Z,6.63
2022-10-19T22:31:19.268Z,6.78
2022-10-19T22:33:45.356Z,7.00
2022-10-19T22:36:13.060Z,10.82
2022-10-19T22:38:39.882Z,8.50
2022-10-19T22:41:06.144Z,7.22
2022-10-19T22:43:32.267Z,10.18
2022-10-19T22:45:58.351Z,8.52
2022-10-19T22:48:24.508Z,11.10
2022-10-19T22:50:54.312Z,7.57
2022-10-19T22:53:21.663Z,6.95
2022-10-19T22:55:47.903Z,7.38
2022-10-19T22:58:14.106Z,9.93
2022-10-19T23:00:40.205Z,8.98
2022-10-19T23:03:06.336Z,11.27
2022-10-19T23:05:32.588Z,5.78
2022-10-19T23:07:58.691Z,7.93
2022-10-19T23:10:24.994Z,6.97
2022-10-19T23:12:52.841Z,5.00
2022-10-19T23:15:20.063Z,16.27
2022-10-19T23:17:46.485Z,6.43
2022-10-19T23:20:13.216Z,8.23
2022-10-19T23:22:39.772Z,7.22
2022-10-19T23:25:06.676Z,7.57
2022-10-19T23:27:32.911Z,7.90
2022-10-19T23:29:59.452Z,6.07
2022-10-19T23:32:25.569Z,7.43
2022-10-19T23:34:51.655Z,7.05
2022-10-19T23:37:17.893Z,8.93
2022-10-19T23:39:44.004Z,7.22
2022-10-19T23:42:10.094Z,7.88
2022-10-19T23:44:36.171Z,9.90
2022-10-19T23:47:02.255Z,9.15
2022-10-19T23:49:28.346Z,7.25
2022-10-19T23:51:54.490Z,9.82
2022-10-19T23:54:20.572Z,6.63
2022-10-19T23:56:46.680Z,8.38
2022-10-19T23:59:12.760Z,7.78
